Time;durP1;ratioP1;P1;durP2;ratioP2;P2;SDS_P1;SDS_P2;PMS_P1;PMS_P2;Temp;Humidity;BMP_temperature;BMP_pressure;BME280_temperature;BME280_humidity;BME280_pressure;Samples;Min_cycle;Max_cycle;Signal;HPM_P1;HPM_P2
2022/06/11 00:01:23;;;;;;;5.93;5.37;;;14.80;76.20;;;13.64;73.14;98563.94;4977085;28;20465;-70
2022/06/11 00:03:54;;;;;;;6.30;5.70;;;14.70;76.70;;;13.46;73.60;98566.34;5003756;28;20460;-71
2022/06/11 00:06:24;;;;;;;6.00;5.50;;;14.50;77.00;;;13.57;73.00;98559.41;4979091;28;20566;-70
2022/06/11 00:08:51;;;;;;;6.70;6.00;;;14.50;77.20;;;13.59;72.66;98557.28;4983784;28;20481;-69
2022/06/11 00:11:19;;;;;;;6.33;5.80;;;14.60;77.20;;;13.52;73.34;98561.13;4975617;28;20516;-69
2022/06/11 00:13:48;;;;;;;5.97;5.47;;;14.50;77.60;;;13.31;73.54;98553.09;4978514;28;20970;-71
2022/06/11 00:16:18;;;;;;;8.50;5.50;;;14.50;77.70;;;13.33;74.00;98563.72;4976750;28;20465;-69
2022/06/11 00:18:47;;;;;;;7.10;6.40;;;14.40;77.90;;;13.44;73.64;98564.94;4981475;28;20499;-72
2022/06/11 00:21:15;;;;;;;7.17;6.13;;;14.40;78.10;;;13.34;73.91;98575.41;4982028;28;21088;-71
2022/06/11 00:23:46;;;;;;;7.33;6.40;;;14.40;78.30;;;13.18;74.68;98578.41;4981601;28;20479;-70
2022/06/11 00:26:13;;;;;;;5.60;5.20;;;14.30;78.80;;;13.18;74.77;98567.56;4975544;28;20461;-70
2022/06/11 00:28:42;;;;;;;5.80;5.30;;;14.20;79.10;;;13.21;74.42;98563.59;4980958;28;20500;-70
2022/06/11 00:31:12;;;;;;;6.50;5.90;;;14.20;79.10;;;13.22;74.63;98567.16;5003465;28;20477;-70
2022/06/11 00:33:40;;;;;;;5.93;5.43;;;14.20;79.30;;;13.07;74.44;98553.88;4981552;28;20995;-71
2022/06/11 00:36:09;;;;;;;6.00;5.40;;;14.20;79.30;;;13.21;74.47;98581.78;5009472;28;20449;-69
2022/06/11 00:38:37;;;;;;;5.90;5.33;;;14.20;79.30;;;13.04;74.67;98550.56;4995709;28;20473;-71
2022/06/11 00:41:07;;;;;;;7.30;6.60;;;14.20;79.40;;;13.13;74.79;98566.59;5008413;28;20456;-70
2022/06/11 00:43:37;;;;;;;6.70;6.10;;;14.20;79.60;;;13.16;74.74;98564.25;4979531;28;20493;-70
2022/06/11 00:46:43;;;;;;;6.57;5.97;;;14.10;79.70;;;13.07;75.06;98559.31;5005244;28;20974;-71
2022/06/11 00:49:23;;;;;;;5.83;5.33;;;14.10;79.90;;;13.01;75.13;98553.72;4979123;28;20468;-70
2022/06/11 00:51:58;;;;;;;6.23;5.63;;;14.10;80.00;;;12.88;75.75;98559.22;4995300;28;20498;-69
2022/06/11 00:54:29;;;;;;;6.20;5.60;;;14.00;80.10;;;12.45;76.16;98515.41;5003467;28;20453;-69
2022/06/11 00:56:59;;;;;;;6.40;5.83;;;13.80;80.80;;;12.68;76.58;98568.28;4985077;28;20460;-69
2022/06/11 00:59:32;;;;;;;6.60;6.10;;;13.70;81.10;;;12.59;76.86;98564.16;4982903;28;20525;-70
2022/06/11 01:02:01;;;;;;;6.00;5.50;;;13.60;81.40;;;12.71;76.17;98561.59;5014414;28;21014;-70
2022/06/11 01:04:49;;;;;;;6.57;5.97;;;13.70;81.40;;;12.75;75.87;98554.72;5087151;28;20453;-70
2022/06/11 01:07:47;;;;;;;6.53;6.03;;;13.70;81.00;;;12.73;75.67;98548.63;4983448;28;20468;-70
2022/06/11 01:10:40;;;;;;;8.47;5.70;;;13.70;81.00;;;12.58;75.87;98529.97;4982072;28;21071;-70
2022/06/11 01:13:19;;;;;;;6.60;6.10;;;13.70;81.20;;;12.64;76.26;98547.25;4978356;28;20838;-70
2022/06/11 01:15:54;;;;;;;7.50;6.23;;;13.70;81.20;;;12.71;76.11;98550.75;4983802;28;20461;-68
2022/06/11 01:18:41;;;;;;;6.13;5.43;;;13.70;81.30;;;12.35;76.82;98504.19;4991424;28;20529;-68
2022/06/11 01:21:22;;;;;;;6.47;5.90;;;13.60;81.60;;;12.56;77.00;98548.31;4985810;28;20452;-67
2022/06/11 01:24:23;;;;;;;6.00;5.50;;;13.60;82.00;;;12.38;77.55;98546.31;4986482;28;20541;-68
2022/06/11 01:27:31;;;;;;;6.40;5.80;;;13.50;82.20;;;12.41;77.68;98548.56;4985706;28;20449;-67
2022/06/11 01:30:05;;;;;;;5.83;5.33;;;13.40;82.80;;;12.19;77.77;98536.16;4979042;28;21056;-69
2022/06/11 01:32:43;;;;;;;7.13;6.50;;;13.40;82.80;;;12.17;78.76;98550.97;4980742;28;20556;-70
2022/06/11 01:35:31;;;;;;;6.90;6.33;;;13.30;83.40;;;12.27;78.24;98553.22;4979068;28;20455;-70
2022/06/11 01:38:06;;;;;;;6.77;6.10;;;13.20;83.30;;;12.25;78.45;98553.44;4982562;28;20457;-70
2022/06/11 01:40:53;;;;;;;8.13;6.67;;;13.20;83.50;;;12.27;78.21;98555.94;4987126;28;20482;-70
2022/06/11 01:43:26;;;;;;;7.00;6.33;;;13.30;83.70;;;12.27;78.38;98545.09;4987063;28;20501;-70
2022/06/11 01:45:55;;;;;;;6.73;6.10;;;13.30;84.10;;;12.03;79.69;98544.75;4984025;28;20518;-70
2022/06/11 01:48:27;;;;;;;6.47;5.93;;;13.10;84.20;;;12.06;79.50;98549.75;4986682;28;20530;-69
2022/06/11 01:51:10;;;;;;;6.87;6.27;;;13.10;85.10;;;12.14;79.14;98546.78;4980603;28;20501;-70
2022/06/11 01:53:48;;;;;;;6.97;6.30;;;13.10;84.50;;;12.15;78.87;98547.66;4985846;28;20949;-70
2022/06/11 01:57:03;;;;;;;6.60;6.10;;;13.10;84.40;;;12.16;78.92;98544.72;4980097;28;20460;-70
2022/06/11 01:59:57;;;;;;;6.57;6.00;;;13.20;84.50;;;12.10;79.54;98540.16;4986372;28;20460;-68
2022/06/11 02:02:48;;;;;;;8.13;6.13;;;13.20;85.00;;;12.11;79.08;98539.09;4982848;28;20517;-70
2022/06/11 02:05:21;;;;;;;6.93;6.10;;;13.20;84.90;;;12.10;79.47;98529.31;4979368;28;20445;-71
2022/06/11 02:08:01;;;;;;;7.00;6.30;;;13.10;84.90;;;12.09;79.25;98543.06;4982130;28;20526;-72
2022/06/11 02:10:37;;;;;;;6.93;6.10;;;13.10;85.00;;;11.88;79.96;98540.34;5019504;28;20459;-71
2022/06/11 02:13:12;;;;;;;6.33;5.83;;;13.00;85.50;;;11.82;79.89;98548.50;5068167;28;20526;-70
2022/06/11 02:15:48;;;;;;;6.67;6.17;;;12.90;85.40;;;11.60;81.21;98549.59;4996340;28;20460;-68
2022/06/11 02:18:20;;;;;;;7.13;6.43;;;12.70;86.40;;;11.52;81.87;98555.19;5012445;28;20461;-68
2022/06/11 02:20:53;;;;;;;8.03;7.30;;;12.60;87.40;;;11.61;80.92;98543.13;5082624;28;20456;-71
2022/06/11 02:23:24;;;;;;;8.90;6.30;;;12.60;87.20;;;11.74;80.49;98558.50;5043943;28;20486;-69
2022/06/11 02:25:57;;;;;;;7.50;6.90;;;12.70;86.90;;;11.65;81.13;98558.94;4989182;28;20461;-70
2022/06/11 02:28:29;;;;;;;6.70;6.20;;;12.70;86.60;;;11.52;81.04;98557.91;5001865;28;20450;-69
2022/06/11 02:31:02;;;;;;;6.73;6.13;;;12.60;87.10;;;11.62;80.95;98558.31;4998848;28;20540;-69
2022/06/11 02:33:34;;;;;;;7.27;6.67;;;12.70;86.70;;;11.65;80.32;98554.34;4984182;28;20990;-69
2022/06/11 02:36:09;;;;;;;6.57;6.13;;;12.70;87.00;;;11.66;80.38;98557.91;4983613;28;20517;-69
2022/06/11 02:38:36;;;;;;;7.57;6.87;;;12.70;86.80;;;11.65;81.07;98553.53;4985576;28;21175;-71
2022/06/11 02:41:08;;;;;;;7.13;6.43;;;12.70;87.00;;;11.55;81.48;98548.53;4980636;28;20462;-69
2022/06/11 02:43:36;;;;;;;7.93;6.50;;;12.70;87.10;;;11.54;81.32;98560.41;4989221;28;20459;-69
2022/06/11 02:48:48;;;;;;;7.20;6.57;;;12.50;88.00;;;11.30;82.68;98571.63;5004766;28;20463;-70
2022/06/11 02:51:15;;;;;;;6.70;6.20;;;12.40;88.60;;;11.32;82.39;98574.97;4998204;28;20463;-72
2022/06/11 02:53:42;;;;;;;6.07;5.67;;;12.40;89.20;;;11.34;82.07;98566.63;4987007;28;20561;-69
2022/06/11 02:56:11;;;;;;;6.67;6.17;;;12.40;88.80;;;11.37;82.53;98568.09;4986925;28;20447;-69
2022/06/11 02:58:38;;;;;;;7.60;7.00;;;12.40;89.10;;;11.44;81.56;98568.91;4988813;28;20464;-70
2022/06/11 03:01:06;;;;;;;7.37;6.77;;;12.50;88.60;;;11.42;81.95;98571.00;4986219;28;20471;-71
2022/06/11 03:03:35;;;;;;;6.70;6.10;;;12.50;87.80;;;11.30;82.17;98568.94;4988802;28;21011;-69
2022/06/11 03:06:04;;;;;;;6.60;6.00;;;12.40;88.20;;;11.46;81.46;98566.84;4986888;28;20969;-71
2022/06/11 03:08:33;;;;;;;7.30;6.60;;;12.50;87.90;;;11.48;81.70;98575.59;4987339;28;20453;-70
2022/06/11 03:11:01;;;;;;;7.73;7.10;;;12.50;88.10;;;11.49;81.77;98571.84;5000422;28;20525;-70
2022/06/11 03:13:30;;;;;;;7.07;6.37;;;12.60;87.90;;;11.45;81.10;98571.41;4983177;28;20476;-69
2022/06/11 03:15:57;;;;;;;8.70;6.50;;;12.60;87.40;;;11.57;80.77;98573.50;4985665;28;20478;-70
2022/06/11 03:18:25;;;;;;;7.73;7.03;;;12.60;87.10;;;11.56;80.59;98575.38;4988803;28;20471;-70
2022/06/11 03:20:54;;;;;;;7.63;7.03;;;12.70;87.00;;;11.50;81.42;98578.94;4990957;28;20473;-70
2022/06/11 03:23:24;;;;;;;6.80;6.20;;;12.60;87.10;;;11.56;80.25;98572.66;4992679;28;20490;-69
2022/06/11 03:25:51;;;;;;;7.27;6.67;;;12.60;86.60;;;11.45;81.31;98576.03;4981781;28;20448;-70
2022/06/11 03:28:23;;;;;;;8.40;6.80;;;12.60;86.80;;;11.43;81.50;98584.34;5003958;28;20872;-71
2022/06/11 03:30:52;;;;;;;7.07;6.37;;;12.60;87.50;;;11.54;81.36;98585.56;4981443;28;20484;-69
2022/06/11 03:33:20;;;;;;;7.10;6.50;;;12.60;87.50;;;11.47;81.64;98574.75;4988147;28;20475;-70
2022/06/11 03:35:49;;;;;;;7.10;6.33;;;12.60;87.40;;;11.58;80.93;98572.47;4989672;28;20471;-70
2022/06/11 03:38:18;;;;;;;7.37;6.67;;;12.70;87.00;;;11.75;80.41;98579.13;4987408;28;20561;-69
2022/06/11 03:40:46;;;;;;;6.87;6.37;;;12.80;86.70;;;11.75;80.14;98580.97;4985862;28;20460;-69
2022/06/11 03:43:15;;;;;;;7.33;6.63;;;12.80;85.90;;;11.85;79.21;98586.81;4983696;28;20583;-69
2022/06/11 03:45:42;;;;;;;9.23;6.73;;;12.90;85.40;;;11.76;79.02;98588.91;4986271;28;20517;-70
2022/06/11 03:48:11;;;;;;;8.30;6.77;;;12.90;84.80;;;11.86;79.75;98588.47;4986719;28;21478;-70
2022/06/11 03:50:40;;;;;;;6.43;5.90;;;12.90;85.50;;;11.98;78.88;98591.41;4985917;28;20459;-68
2022/06/11 03:53:10;;;;;;;8.70;6.37;;;13.00;85.10;;;12.03;78.93;98588.06;4980253;28;20981;-70
2022/06/11 03:55:38;;;;;;;7.83;7.23;;;13.10;84.80;;;11.98;78.23;98572.44;4986963;28;20941;-70
2022/06/11 03:58:08;;;;;;;6.73;6.13;;;13.10;84.20;;;12.16;77.41;98596.16;4973827;28;20456;-71
2022/06/11 04:03:22;;;;;;;7.00;6.40;;;13.20;84.20;;;12.57;76.32;98594.16;4988773;28;21007;-70
2022/06/11 04:05:51;;;;;;;7.30;6.67;;;13.50;83.10;;;13.16;74.09;98598.69;4984618;28;20461;-69
2022/06/11 04:08:22;;;;;;;7.57;6.87;;;14.10;81.40;;;13.87;70.60;98596.72;4986067;28;20472;-67
2022/06/11 04:10:50;;;;;;;6.50;6.00;;;14.90;78.90;;;14.82;67.37;98603.91;4986492;28;20471;-68
2022/06/11 04:13:20;;;;;;;6.50;5.90;;;15.80;76.70;;;15.34;64.84;98597.97;4991672;28;20547;-67
2022/06/11 04:15:48;;;;;;;6.27;5.67;;;16.50;74.20;;;15.80;63.20;98601.00;4984719;28;20465;-67
2022/06/11 04:18:27;;;;;;;5.80;5.20;;;17.10;72.40;;;16.15;61.78;98602.09;4986039;28;20986;-68
2022/06/11 04:20:55;;;;;;;6.57;5.97;;;17.70;70.10;;;15.88;61.53;98560.84;4986325;28;20462;-68
2022/06/11 04:23:27;;;;;;;5.70;5.30;;;17.70;69.20;;;15.90;62.00;98607.78;4983895;28;20969;-70
2022/06/11 04:25:54;;;;;;;5.97;5.47;;;17.60;68.80;;;15.64;63.02;98607.13;4998438;28;20540;-68
2022/06/11 04:28:23;;;;;;;5.97;5.37;;;17.30;69.00;;;16.13;61.08;98605.06;4987343;28;20509;-67
2022/06/11 04:30:50;;;;;;;6.90;5.47;;;17.50;68.70;;;16.54;59.87;98607.03;4986086;28;20945;-67
2022/06/11 04:33:17;;;;;;;5.40;5.00;;;18.00;67.60;;;17.22;57.85;98598.31;4985989;28;21002;-69
2022/06/11 04:35:45;;;;;;;5.50;5.00;;;18.50;66.60;;;17.79;56.07;98608.28;4983375;28;20514;-70
2022/06/11 04:38:12;;;;;;;5.23;4.80;;;19.00;65.30;;;17.35;57.14;98599.88;4985619;28;20467;-69
2022/06/11 04:40:39;;;;;;;5.43;4.90;;;18.90;64.60;;;17.28;57.69;98600.88;4986204;28;20550;-68
2022/06/11 04:43:06;;;;;;;5.37;4.97;;;18.90;64.70;;;17.45;57.12;98596.53;4963006;28;20526;-68
2022/06/11 04:45:35;;;;;;;6.40;5.80;;;18.90;64.30;;;17.78;55.15;98551.97;4980429;28;20463;-70
2022/06/11 04:48:03;;;;;;;5.73;5.33;;;19.40;63.60;;;17.83;55.67;98597.69;5000339;28;20463;-69
2022/06/11 04:50:32;;;;;;;5.93;5.43;;;19.40;63.00;;;18.25;54.72;98594.53;4987066;28;20468;-69
2022/06/11 04:52:59;;;;;;;5.97;5.47;;;19.50;62.90;;;19.08;52.42;98594.75;4983324;28;20483;-69
2022/06/11 04:55:26;;;;;;;6.53;6.03;;;19.90;62.10;;;18.21;54.45;98614.44;4984940;28;20482;-70
2022/06/11 04:57:54;;;;;;;6.43;5.87;;;20.00;61.10;;;17.12;56.95;98609.88;4972182;28;20467;-69
2022/06/11 05:00:25;;;;;;;5.80;5.40;;;19.30;61.80;;;16.79;58.49;98601.28;4980904;28;20452;-70
2022/06/11 05:02:54;;;;;;;6.03;5.57;;;18.70;62.70;;;17.57;57.25;98605.47;4983614;28;20510;-69
2022/06/11 05:05:22;;;;;;;5.53;5.07;;;18.80;63.40;;;18.33;54.88;98604.22;4993944;28;20460;-71
2022/06/11 05:07:50;;;;;;;6.93;5.53;;;19.40;62.50;;;19.19;52.07;98612.97;5007185;28;20947;-69
2022/06/11 05:10:22;;;;;;;5.30;4.80;;;20.30;61.00;;;19.05;52.79;98607.06;4983936;28;21093;-69
2022/06/11 05:12:49;;;;;;;7.10;6.20;;;20.40;60.70;;;19.08;52.15;98616.66;4982417;28;20471;-70
2022/06/11 05:15:16;;;;;;;5.83;5.40;;;20.70;59.80;;;19.79;50.77;98620.38;5041939;28;20960;-71
2022/06/11 05:17:45;;;;;;;5.50;5.10;;;20.80;59.70;;;19.61;50.59;98613.34;4985893;28;20471;-69
2022/06/11 05:20:16;;;;;;;5.73;5.33;;;21.10;59.10;;;20.59;48.31;98607.72;4986747;28;20471;-70
2022/06/11 05:22:46;;;;;;;7.40;5.53;;;21.60;58.70;;;21.15;46.91;98609.88;5000525;28;20896;-70
2022/06/11 05:25:15;;;;;;;6.23;5.30;;;22.20;57.50;;;19.32;51.16;98603.50;4978581;28;20572;-69
2022/06/11 05:27:44;;;;;;;5.70;5.30;;;21.40;57.70;;;19.01;52.47;98616.03;4982616;28;20476;-70
2022/06/11 05:30:22;;;;;;;7.00;5.77;;;21.00;58.20;;;18.58;53.74;98623.97;4985121;28;20450;-68
2022/06/11 05:32:51;;;;;;;6.10;5.50;;;20.70;58.50;;;18.67;53.88;98622.47;4985150;28;20860;-69
2022/06/11 05:35:25;;;;;;;6.77;6.17;;;20.60;58.70;;;19.72;51.10;98623.31;4980266;28;20970;-76
2022/06/11 05:37:56;;;;;;;6.53;6.00;;;21.20;58.20;;;21.13;47.52;98622.25;4974017;28;20507;-76
2022/06/11 05:40:30;;;;;;;5.97;5.43;;;21.90;57.30;;;20.87;47.50;98625.75;4978014;28;20476;-76
2022/06/11 05:42:57;;;;;;;6.50;6.00;;;22.30;56.60;;;20.05;49.63;98634.31;4978193;28;20528;-76
2022/06/11 05:45:31;;;;;;;6.90;6.30;;;21.70;56.60;;;21.14;46.86;98638.47;4975568;28;20478;-76
2022/06/11 05:47:59;;;;;;;6.10;5.60;;;22.20;56.40;;;22.11;45.05;98632.56;5011482;28;20529;-76
2022/06/11 05:50:33;;;;;;;5.40;4.90;;;22.70;56.10;;;22.64;43.71;98626.69;4979371;28;20462;-76
2022/06/11 05:53:01;;;;;;;5.13;4.83;;;23.30;55.30;;;23.70;41.30;98627.53;4981936;28;20681;-77
2022/06/11 05:55:34;;;;;;;6.90;6.23;;;24.10;54.60;;;23.17;42.13;98612.41;4972578;28;20460;-76
2022/06/11 05:58:05;;;;;;;6.10;5.60;;;24.40;54.00;;;23.34;42.24;98630.53;4974831;28;20519;-76
2022/06/11 06:00:34;;;;;;;6.40;5.60;;;24.20;53.90;;;22.39;43.82;98633.88;4984825;28;20499;-75
2022/06/11 06:03:02;;;;;;;6.00;5.50;;;24.10;53.40;;;21.70;45.45;98631.47;4976536;28;20495;-74
2022/06/11 06:05:32;;;;;;;5.90;5.40;;;23.70;53.50;;;23.02;42.83;98627.06;4987454;28;20987;-75
2022/06/11 06:08:00;;;;;;;5.77;5.27;;;24.10;53.60;;;21.63;45.55;98626.19;4988792;28;20455;-75
2022/06/11 06:10:27;;;;;;;5.57;5.10;;;23.50;53.50;;;21.30;46.87;98630.25;4981093;28;20475;-74
2022/06/11 06:12:54;;;;;;;5.40;4.97;;;22.80;54.30;;;20.10;49.74;98632.44;4974091;28;20484;-75
2022/06/11 06:15:30;;;;;;;7.03;5.60;;;21.50;55.50;;;19.28;52.19;98632.50;4963501;28;20462;-75
2022/06/11 06:17:57;;;;;;;6.83;6.13;;;20.60;56.80;;;18.76;53.79;98636.53;4975598;28;20470;-74
2022/06/11 06:20:25;;;;;;;6.60;6.10;;;20.20;57.70;;;18.53;54.42;98631.03;4983699;28;20478;-74
2022/06/11 06:22:55;;;;;;;6.60;6.00;;;19.90;58.10;;;18.70;54.19;98632.88;4987182;28;20463;-75
2022/06/11 06:25:23;;;;;;;7.30;6.57;;;19.90;58.50;;;18.73;53.75;98628.78;5012332;28;20467;-76
2022/06/11 06:27:50;;;;;;;9.70;6.60;;;19.90;58.40;;;18.62;53.80;98636.06;4987731;28;20463;-74
2022/06/11 06:30:18;;;;;;;6.77;6.10;;;19.80;58.60;;;18.12;55.35;98647.69;4992664;28;20470;-74
2022/06/11 06:32:45;;;;;;;7.50;6.43;;;19.40;59.00;;;18.64;54.66;98629.25;4986990;28;20473;-75
2022/06/11 06:35:12;;;;;;;7.43;6.40;;;19.60;59.70;;;18.89;53.73;98632.56;4987180;28;20864;-74
2022/06/11 06:37:40;;;;;;;6.77;6.07;;;19.80;59.10;;;18.77;53.66;98632.69;4989601;28;20462;-74
2022/06/11 06:40:10;;;;;;;5.93;5.43;;;19.90;58.80;;;18.62;54.89;98636.06;4992411;28;20484;-75
2022/06/11 06:42:38;;;;;;;6.60;5.47;;;19.70;59.50;;;18.48;54.92;98649.28;4981515;28;20787;-75
2022/06/11 06:45:06;;;;;;;6.87;6.20;;;19.60;59.40;;;18.72;54.90;98640.81;4995937;28;20451;-74
2022/06/11 06:47:33;;;;;;;6.00;5.50;;;19.70;59.90;;;18.80;54.87;98643.13;4976079;28;20528;-74
2022/06/11 06:50:01;;;;;;;6.27;5.67;;;19.80;59.90;;;18.98;54.60;98639.25;4981465;28;20469;-75
2022/06/11 06:52:28;;;;;;;6.20;5.70;;;19.80;60.10;;;19.54;52.90;98636.31;4985371;28;20455;-74
2022/06/11 06:54:55;;;;;;;6.20;5.70;;;20.20;59.80;;;19.60;52.26;98639.94;4981260;28;20559;-73
2022/06/11 06:57:24;;;;;;;6.40;5.80;;;20.40;59.10;;;19.71;52.08;98640.00;4984031;28;20459;-74
2022/06/11 06:59:51;;;;;;;9.57;5.67;;;20.60;58.90;;;19.73;52.64;98635.94;4989321;28;20985;-75
2022/06/11 07:02:19;;;;;;;6.27;5.40;;;20.70;59.20;;;20.20;50.76;98644.56;5007146;28;20950;-75
2022/06/11 07:04:46;;;;;;;6.40;5.50;;;21.00;58.40;;;20.00;50.42;98642.47;4987491;28;20492;-74
2022/06/11 07:07:15;;;;;;;7.40;5.80;;;21.00;57.60;;;20.01;51.01;98642.22;4982435;28;20653;-75
2022/06/11 07:09:44;;;;;;;6.77;6.07;;;21.20;58.00;;;20.52;49.96;98621.69;4990655;28;20475;-74
2022/06/11 07:12:11;;;;;;;5.57;5.07;;;21.30;58.10;;;21.49;47.88;98634.16;4992178;28;20895;-75
2022/06/11 07:14:40;;;;;;;6.73;5.00;;;21.90;57.70;;;22.02;46.91;98635.84;4984752;28;20478;-76
2022/06/11 07:17:10;;;;;;;5.33;4.87;;;22.70;57.10;;;22.70;45.55;98638.53;4982183;28;20908;-75
2022/06/11 07:19:42;;;;;;;5.87;5.20;;;23.30;56.40;;;22.24;45.27;98636.66;4983780;28;20462;-75
2022/06/11 07:22:16;;;;;;;5.83;5.23;;;23.30;55.40;;;22.74;44.20;98639.59;4978744;28;20523;-74
2022/06/11 07:24:44;;;;;;;5.47;4.97;;;23.30;55.10;;;23.14;43.66;98635.03;4978562;28;20472;-75
2022/06/11 07:27:18;;;;;;;6.30;5.47;;;23.80;55.00;;;23.09;43.90;98635.03;4973513;28;20469;-74
2022/06/11 07:29:54;;;;;;;6.13;4.90;;;23.80;55.00;;;23.62;43.07;98619.88;5014840;28;20463;-75
2022/06/11 07:32:23;;;;;;;6.07;5.57;;;24.20;54.80;;;24.14;41.33;98613.94;4979227;28;20468;-76
2022/06/11 07:34:50;;;;;;;5.30;4.80;;;24.80;53.90;;;23.80;42.15;98629.38;4980840;28;20486;-75
2022/06/11 07:37:19;;;;;;;5.50;5.00;;;24.60;53.60;;;23.66;42.40;98620.94;4988397;28;20464;-75
2022/06/11 07:39:47;;;;;;;5.13;4.57;;;24.50;53.50;;;23.53;42.28;98613.31;4978219;28;20575;-75
2022/06/11 07:42:14;;;;;;;5.17;4.70;;;24.60;53.30;;;23.16;42.83;98618.19;4976758;28;20957;-75
2022/06/11 07:44:41;;;;;;;6.60;4.67;;;24.20;53.10;;;22.46;44.22;98619.81;4987561;28;20979;-75
2022/06/11 07:47:10;;;;;;;4.83;4.40;;;23.70;53.20;;;22.77;43.86;98615.09;4975230;28;20600;-76
2022/06/11 07:49:38;;;;;;;4.90;4.40;;;23.60;53.60;;;23.75;40.94;98608.19;4976509;28;20473;-71
2022/06/11 07:52:06;;;;;;;4.70;4.30;;;24.20;52.60;;;23.63;41.11;98616.00;4975507;28;20470;-73
2022/06/11 07:54:34;;;;;;;6.90;4.10;;;24.40;52.20;;;24.18;40.36;98615.84;5001205;28;20581;-72
2022/06/11 07:57:01;;;;;;;6.67;4.10;;;24.80;52.30;;;23.87;39.88;98609.72;4987406;28;20886;-73
2022/06/11 07:59:29;;;;;;;5.13;4.10;;;24.80;51.40;;;23.84;40.38;98619.44;4988649;28;20474;-73
2022/06/11 08:01:56;;;;;;;3.73;3.40;;;24.60;51.70;;;23.95;39.48;98613.81;4985820;28;20473;-73
2022/06/11 08:04:25;;;;;;;4.17;3.77;;;24.70;51.00;;;24.03;39.50;98619.53;4993215;28;20804;-74
2022/06/11 08:06:52;;;;;;;3.60;3.30;;;24.90;51.00;;;24.34;38.85;98612.91;4988463;28;20463;-72
2022/06/11 08:09:19;;;;;;;5.57;3.90;;;24.90;50.80;;;24.47;38.54;98611.38;5006220;28;20487;-73
2022/06/11 08:11:46;;;;;;;3.90;3.40;;;25.00;50.60;;;24.42;38.34;98608.69;4981175;28;20467;-72
2022/06/11 08:14:13;;;;;;;4.50;3.80;;;25.00;50.40;;;24.30;38.70;98601.63;4985370;28;20470;-74
2022/06/11 08:16:41;;;;;;;5.60;3.40;;;25.10;50.40;;;24.55;38.29;98608.00;4981610;28;20462;-73
2022/06/11 08:19:08;;;;;;;3.67;3.20;;;25.20;50.20;;;24.96;37.77;98605.88;4974199;28;20999;-79
2022/06/11 08:21:37;;;;;;;3.70;2.73;;;25.50;50.00;;;25.39;36.08;98605.00;4981532;28;20460;-78
2022/06/11 08:24:05;;;;;;;2.97;2.43;;;25.90;49.30;;;25.05;35.60;98598.56;4986945;28;20453;-77
2022/06/11 08:26:34;;;;;;;3.03;2.60;;;25.80;48.40;;;24.74;35.85;98618.25;5018929;28;20464;-78
2022/06/11 08:29:01;;;;;;;8.10;2.93;;;25.60;48.00;;;25.14;35.52;98618.91;4976580;28;20464;-80
2022/06/11 08:31:29;;;;;;;4.03;2.60;;;25.90;48.10;;;24.99;35.86;98613.56;4976514;28;20469;-79
2022/06/11 08:33:56;;;;;;;2.47;2.27;;;25.90;47.90;;;25.74;34.43;98620.25;4975724;28;20551;-79
2022/06/11 08:36:24;;;;;;;2.80;2.60;;;26.30;47.30;;;25.69;34.67;98600.16;4981295;28;20463;-78
2022/06/11 08:38:52;;;;;;;4.27;2.60;;;26.50;47.30;;;25.09;35.47;98616.19;5005593;27;20460;-78
2022/06/11 08:41:29;;;;;;;3.93;3.17;;;26.20;47.20;;;24.73;35.90;98611.09;4987071;28;20463;-78
2022/06/11 08:44:01;;;;;;;2.53;2.00;;;25.80;47.40;;;24.70;35.88;98614.47;4985107;28;20452;-79
2022/06/11 08:46:35;;;;;;;2.63;2.10;;;25.50;47.40;;;24.09;36.33;98608.47;4980566;28;20547;-78
2022/06/11 08:49:14;;;;;;;3.27;2.43;;;25.00;47.20;;;24.07;36.87;98603.25;4985671;28;20459;-79
2022/06/11 08:51:45;;;;;;;2.70;2.50;;;24.90;47.90;;;24.05;36.85;98606.31;4981573;28;20466;-80
2022/06/11 08:54:18;;;;;;;5.30;2.90;;;24.80;47.70;;;24.40;36.72;98605.41;4979868;28;20489;-84
2022/06/11 08:56:53;;;;;;;2.90;2.60;;;25.00;48.10;;;24.42;37.49;98597.66;4985594;28;20479;-75
2022/06/11 08:59:51;;;;;;;3.27;2.80;;;25.10;48.30;;;24.04;37.98;98593.63;4985064;28;20453;-75
2022/06/11 09:02:48;;;;;;;4.80;2.57;;;24.80;48.50;;;23.60;37.90;98605.56;4983818;28;20456;-73
2022/06/11 09:06:02;;;;;;;3.57;2.63;;;24.60;48.20;;;23.63;38.11;98599.47;4984760;28;20450;-74
2022/06/11 09:08:48;;;;;;;2.27;2.07;;;24.40;48.20;;;23.51;38.24;98563.16;4971141;28;20548;-75
2022/06/11 09:11:43;;;;;;;2.67;2.37;;;24.40;48.60;;;23.80;38.09;98592.69;4967057;28;20655;-77
2022/06/11 09:14:51;;;;;;;4.13;2.90;;;24.40;48.30;;;24.21;38.66;98597.88;4976633;28;20573;-74
2022/06/11 09:17:40;;;;;;;3.63;2.83;;;24.70;49.20;;;24.13;37.27;98584.69;4972677;28;20458;-74
2022/06/11 09:20:33;;;;;;;4.97;3.00;;;24.80;48.20;;;23.90;37.46;98559.50;4982033;28;20490;-75
2022/06/11 09:23:27;;;;;;;3.77;2.90;;;24.70;48.30;;;24.26;37.24;98575.72;4980873;28;20467;-75
2022/06/11 09:26:10;;;;;;;3.23;2.63;;;25.00;48.60;;;24.17;37.39;98591.28;4977834;28;20463;-72
2022/06/11 09:28:44;;;;;;;3.30;2.90;;;24.90;48.00;;;24.48;37.33;98585.41;4979172;28;20961;-74
2022/06/11 09:31:16;;;;;;;3.10;2.70;;;25.00;48.30;;;24.64;37.47;98582.47;4985620;28;20864;-77
2022/06/11 09:33:52;;;;;;;2.70;2.50;;;25.20;48.40;;;24.96;36.20;98579.06;4989192;28;20450;-76
2022/06/11 09:36:28;;;;;;;2.80;2.60;;;25.50;48.00;;;25.01;37.18;98580.94;5011868;27;20473;-76
2022/06/11 09:39:06;;;;;;;2.97;2.77;;;25.70;48.40;;;25.03;36.62;98584.22;4977099;28;20466;-75
2022/06/11 09:41:46;;;;;;;2.77;2.57;;;25.60;48.20;;;25.57;35.73;98581.25;4976395;28;20475;-77
2022/06/11 09:44:29;;;;;;;2.70;2.47;;;25.90;47.60;;;25.45;35.71;98582.50;4984435;28;20551;-76
2022/06/11 09:47:03;;;;;;;4.73;2.27;;;26.00;47.40;;;25.64;35.67;98587.22;4975259;28;20467;-74
2022/06/11 09:49:42;;;;;;;2.60;2.40;;;26.10;47.80;;;26.02;34.87;98584.38;4997514;28;20507;-75
2022/06/11 09:52:21;;;;;;;2.83;2.10;;;26.50;47.40;;;26.47;33.38;98591.31;4982676;28;20457;-77
2022/06/11 09:54:54;;;;;;;2.23;2.00;;;26.80;46.50;;;26.89;31.80;98588.56;4984144;28;20477;-74
2022/06/11 09:57:36;;;;;;;3.07;2.00;;;27.20;45.60;;;26.86;31.95;98591.94;4980722;28;21250;-73
2022/06/11 10:00:17;;;;;;;6.03;2.50;;;27.40;45.30;;;26.70;32.26;98594.19;4984678;28;20630;-73
2022/06/11 10:02:53;;;;;;;2.83;2.23;;;27.50;45.40;;;26.34;32.37;98581.06;4985743;28;20529;-77
2022/06/11 10:05:27;;;;;;;4.90;1.93;;;27.10;45.10;;;26.26;32.68;98590.88;4982813;28;20480;-76
2022/06/11 10:08:02;;;;;;;2.93;2.47;;;26.80;45.40;;;25.84;33.08;98593.50;4985838;28;20456;-74
2022/06/11 10:10:34;;;;;;;2.60;1.97;;;26.60;45.50;;;25.71;33.27;98575.75;5025152;28;20443;-77
2022/06/11 10:13:09;;;;;;;4.47;1.97;;;26.30;45.60;;;25.62;34.51;98589.47;4995837;28;20467;-80
2022/06/11 10:15:40;;;;;;;6.60;3.03;;;26.20;46.40;;;25.77;34.99;98601.41;4976739;28;21239;-77
2022/06/11 10:18:17;;;;;;;2.83;2.40;;;26.40;46.60;;;25.00;34.75;98590.34;4995369;28;20464;-79
2022/06/11 10:20:49;;;;;;;5.20;2.30;;;25.80;46.00;;;25.26;34.74;98595.53;4979091;28;20478;-75
2022/06/11 10:23:28;;;;;;;4.30;1.70;;;25.70;46.10;;;25.16;34.28;98582.66;4983303;28;20472;-77
2022/06/11 10:26:01;;;;;;;2.67;1.83;;;25.60;45.80;;;25.53;34.92;98582.97;4983108;28;20453;-78
2022/06/11 10:28:35;;;;;;;2.70;2.23;;;25.90;46.30;;;25.85;33.18;98584.09;5037505;28;20459;-76
2022/06/11 10:31:13;;;;;;;2.53;2.33;;;26.30;45.60;;;25.83;33.35;98589.09;5030236;28;20460;-77
2022/06/11 10:33:48;;;;;;;2.33;2.10;;;26.20;45.60;;;25.56;33.59;98582.38;4983922;28;20452;-78
2022/06/11 10:36:22;;;;;;;2.13;1.93;;;26.30;45.20;;;25.65;34.26;98588.84;4979425;28;20590;-79
2022/06/11 10:38:56;;;;;;;2.40;2.20;;;26.30;45.80;;;25.56;33.40;98588.72;4987674;28;20460;-78
2022/06/11 10:41:29;;;;;;;4.40;2.07;;;26.20;45.20;;;25.48;33.12;98580.25;4985139;28;20456;-78
2022/06/11 10:44:15;;;;;;;2.83;1.77;;;26.20;45.00;;;25.92;32.86;98581.78;5006491;28;20462;-79
2022/06/11 10:46:44;;;;;;;2.77;2.30;;;26.30;45.50;;;25.56;32.96;98577.66;4969611;28;20563;-77
2022/06/11 10:49:15;;;;;;;2.13;1.80;;;26.30;44.80;;;25.84;33.13;98576.91;4981542;28;20462;-76